createdAt,value
2018-10-01T00:00:03.740Z,71.88
2018-10-01T00:02:32.422Z,71.41
2018-10-01T00:05:01.099Z,71.20
2018-10-01T00:07:29.786Z,71.69
2018-10-01T00:09:58.470Z,71.24
2018-10-01T00:12:27.152Z,71.11
2018-10-01T00:14:55.886Z,71.71
2018-10-01T00:17:24.535Z,71.78
2018-10-01T00:19:58.181Z,71.65
2018-10-01T00:22:31.888Z,72.00
2018-10-01T00:25:00.552Z,71.80
2018-10-01T00:27:29.199Z,71.97
2018-10-01T00:29:57.831Z,72.33
2018-10-01T00:32:26.480Z,72.64
2018-10-01T00:34:55.145Z,73.38
2018-10-01T00:37:23.793Z,73.42
2018-10-01T00:39:52.440Z,73.29
2018-10-01T00:42:21.078Z,73.17
2018-10-01T00:44:49.835Z,73.65
2018-10-01T00:47:18.499Z,73.83
2018-10-01T00:49:47.204Z,73.56
2018-10-01T00:52:15.837Z,73.54
2018-10-01T00:54:44.467Z,73.18
2018-10-01T00:57:13.061Z,73.63
2018-10-01T00:59:41.713Z,74.42
2018-10-01T01:02:10.338Z,74.55
2018-10-01T01:04:38.985Z,74.58
2018-10-01T01:07:07.721Z,74.86
2018-10-01T01:09:36.380Z,75.11
2018-10-01T01:12:05.356Z,74.79
2018-10-01T01:14:34.010Z,75.04
2018-10-01T01:17:02.640Z,75.33
2018-10-01T01:19:31.307Z,76.06
2018-10-01T01:21:59.962Z,76.03
2018-10-01T01:24:28.618Z,76.30
2018-10-01T01:26:57.271Z,76.25
2018-10-01T01:29:25.980Z,75.93
2018-10-01T01:31:54.643Z,76.13
2018-10-01T01:34:23.263Z,76.32
2018-10-01T01:36:51.938Z,77.00
2018-10-01T01:39:20.562Z,76.80
2018-10-01T01:41:49.185Z,77.19
2018-10-01T01:44:17.806Z,77.40
2018-10-01T01:46:46.450Z,76.97
2018-10-01T01:49:15.132Z,77.40
2018-10-01T01:51:43.843Z,77.45
2018-10-01T01:54:12.525Z,78.45
2018-10-01T01:56:41.193Z,78.74
2018-10-01T01:59:09.889Z,79.00
2018-10-01T02:01:38.567Z,79.46
2018-10-01T02:04:07.309Z,80.22
2018-10-01T02:06:35.943Z,80.86
2018-10-01T02:09:06.082Z,81.05
2018-10-01T02:11:34.773Z,81.56
2018-10-01T02:14:03.450Z,81.80
2018-10-01T02:16:32.142Z,82.48
2018-10-01T02:19:00.760Z,82.18
2018-10-01T02:21:30.617Z,82.29
2018-10-01T02:23:59.332Z,83.36
2018-10-01T02:26:28.030Z,83.35
2018-10-01T02:28:56.722Z,83.53
2018-10-01T02:31:25.414Z,83.99
2018-10-01T02:33:54.190Z,84.71
2018-10-01T02:36:22.794Z,84.62
2018-10-01T02:38:51.434Z,84.99
2018-10-01T02:41:20.091Z,85.26
2018-10-01T02:43:48.726Z,85.40
2018-10-01T02:46:17.400Z,85.67
2018-10-01T02:48:46.029Z,85.67
2018-10-01T02:51:14.668Z,85.64
2018-10-01T02:53:48.495Z,85.40
2018-10-01T02:56:17.163Z,85.59
2018-10-01T02:58:45.781Z,86.05
2018-10-01T03:01:14.517Z,86.35
2018-10-01T03:03:43.185Z,86.74
2018-10-01T03:06:11.879Z,86.96
2018-10-01T03:08:40.551Z,86.72
2018-10-01T03:11:09.204Z,86.61
2018-10-01T03:13:37.881Z,86.24
2018-10-01T03:16:07.192Z,87.04
2018-10-01T03:18:35.851Z,87.20
2018-10-01T03:21:04.582Z,87.77
2018-10-01T03:23:33.264Z,87.86
2018-10-01T03:26:02.003Z,88.31
2018-10-01T03:28:30.685Z,88.40
2018-10-01T03:33:33.426Z,89.18
2018-10-01T03:36:02.085Z,88.80
2018-10-01T03:38:30.794Z,88.79
2018-10-01T03:40:59.470Z,88.76
2018-10-01T03:43:28.146Z,88.81
2018-10-01T03:45:56.782Z,89.25
2018-10-01T03:48:25.514Z,88.93
2018-10-01T03:50:54.170Z,88.64
2018-10-01T03:53:22.848Z,88.70
2018-10-01T03:55:51.520Z,89.15
2018-10-01T03:58:20.158Z,89.21
2018-10-01T04:00:48.850Z,89.04
2018-10-01T04:03:23.762Z,88.68
2018-10-01T04:05:52.405Z,88.54
2018-10-01T04:08:21.197Z,88.53
2018-10-01T04:10:49.857Z,88.40
2018-10-01T04:13:18.564Z,88.49
2018-10-01T04:15:47.261Z,88.26
2018-10-01T04:18:15.898Z,88.46
2018-10-01T04:20:49.869Z,88.58
2018-10-01T04:23:18.547Z,88.55
2018-10-01T04:25:47.218Z,88.27
2018-10-01T04:28:15.871Z,87.90
2018-10-01T04:30:44.486Z,88.09
2018-10-01T04:33:13.161Z,88.12
2018-10-01T04:35:41.811Z,88.07
2018-10-01T04:38:10.506Z,88.15
2018-10-01T04:40:39.180Z,88.26
2018-10-01T04:43:07.886Z,88.23
2018-10-01T04:45:36.554Z,88.20
2018-10-01T04:48:05.313Z,88.22
2018-10-01T04:50:33.942Z,87.78
2018-10-01T04:53:02.614Z,87.77
2018-10-01T04:55:31.267Z,87.41
2018-10-01T04:57:59.956Z,87.58
2018-10-01T05:00:28.608Z,87.45
2018-10-01T05:02:57.250Z,87.31
2018-10-01T05:05:25.976Z,87.29
2018-10-01T05:07:54.635Z,87.61
2018-10-01T05:10:23.318Z,87.55
2018-10-01T05:12:51.947Z,87.59
2018-10-01T05:15:20.633Z,87.72
2018-10-01T05:17:49.273Z,87.54
2018-10-01T05:20:17.934Z,87.43
2018-10-01T05:22:46.583Z,87.15
2018-10-01T05:25:15.228Z,87.08
2018-10-01T05:27:43.987Z,86.74
2018-10-01T05:30:12.674Z,86.04
2018-10-01T05:32:41.273Z,85.44
2018-10-01T05:35:09.986Z,85.57
2018-10-01T05:37:38.703Z,85.28
2018-10-01T05:40:07.406Z,85.21
2018-10-01T05:42:36.061Z,84.83
2018-10-01T05:45:04.926Z,84.24
2018-10-01T05:47:33.597Z,84.04
2018-10-01T05:50:02.311Z,83.49
2018-10-01T05:52:30.969Z,83.46
2018-10-01T05:54:59.629Z,83.04
2018-10-01T05:57:28.275Z,83.00
2018-10-01T05:59:56.947Z,83.01
2018-10-01T06:02:25.752Z,82.39
2018-10-01T06:04:54.487Z,81.67
2018-10-01T06:07:23.131Z,81.48
2018-10-01T06:09:51.822Z,81.43
2018-10-01T06:12:20.495Z,80.73
2018-10-01T06:14:49.186Z,79.81
2018-10-01T06:17:17.849Z,79.62
2018-10-01T06:19:46.530Z,79.14
2018-10-01T06:22:15.215Z,78.70
2018-10-01T06:24:43.875Z,79.20
2018-10-01T06:27:12.661Z,78.97
2018-10-01T06:29:41.338Z,78.88
2018-10-01T06:32:10.071Z,78.58
2018-10-01T06:34:38.769Z,78.08
2018-10-01T06:37:07.441Z,78.24
2018-10-01T06:39:36.150Z,77.82
2018-10-01T06:42:04.857Z,77.23
2018-10-01T06:44:33.570Z,76.83
2018-10-01T06:47:02.209Z,76.41
2018-10-01T06:49:30.894Z,76.37
2018-10-01T06:51:59.582Z,75.82
2018-10-01T06:54:28.285Z,74.79
2018-10-01T06:56:57.994Z,74.63
2018-10-01T06:59:26.678Z,73.46
2018-10-01T07:01:55.362Z,72.41
2018-10-01T07:04:24.157Z,71.89
2018-10-01T07:06:52.841Z,71.78
2018-10-01T07:09:21.514Z,71.30
2018-10-01T07:11:50.236Z,70.49
2018-10-01T07:14:18.957Z,69.56
2018-10-01T07:16:47.771Z,67.67
2018-10-01T07:19:16.548Z,67.18
2018-10-01T07:21:45.306Z,67.90
2018-10-01T07:24:14.081Z,68.23
2018-10-01T07:26:42.707Z,68.49
2018-10-01T07:29:11.414Z,68.17
2018-10-01T07:31:40.097Z,68.06
2018-10-01T07:34:08.789Z,67.83
2018-10-01T07:36:37.467Z,68.17
2018-10-01T07:39:08.092Z,68.05
2018-10-01T07:41:36.704Z,68.16
2018-10-01T07:44:05.400Z,67.10
2018-10-01T07:46:34.053Z,67.29
2018-10-01T07:49:02.758Z,67.30
2018-10-01T07:51:31.530Z,67.43
2018-10-01T07:54:00.224Z,66.74
2018-10-01T07:56:28.849Z,66.62
2018-10-01T07:58:57.511Z,67.01
2018-10-01T08:01:26.170Z,66.49
2018-10-01T08:03:54.808Z,66.12
2018-10-01T08:06:23.564Z,64.54
2018-10-01T08:08:52.230Z,64.49
2018-10-01T08:11:21.027Z,64.43
2018-10-01T08:13:49.786Z,62.65
2018-10-01T08:16:18.496Z,62.10
2018-10-01T08:18:47.178Z,61.82
2018-10-01T08:21:15.856Z,62.52
2018-10-01T08:23:44.569Z,62.91
2018-10-01T08:26:13.360Z,62.28
2018-10-01T08:28:41.958Z,62.01
2018-10-01T08:31:10.655Z,62.08
2018-10-01T08:33:39.385Z,61.26
2018-10-01T08:36:08.262Z,60.18
2018-10-01T08:38:37.119Z,59.97
2018-10-01T08:41:05.900Z,58.98
2018-10-01T08:43:34.501Z,57.69
2018-10-01T08:46:03.234Z,58.22
2018-10-01T08:48:33.750Z,57.01
2018-10-01T08:51:11.232Z,55.64
2018-10-01T08:53:45.266Z,54.90
2018-10-01T08:56:13.977Z,54.27
2018-10-01T08:58:42.590Z,54.19
2018-10-01T09:01:11.393Z,53.49
2018-10-01T09:03:40.045Z,52.19
2018-10-01T09:06:08.842Z,52.05
2018-10-01T09:08:37.622Z,51.80
2018-10-01T09:11:06.426Z,51.58
2018-10-01T09:13:35.098Z,50.91
2018-10-01T09:16:03.821Z,50.13
2018-10-01T09:18:32.532Z,50.04
2018-10-01T09:21:01.200Z,49.33
2018-10-01T09:23:29.908Z,49.81
2018-10-01T09:25:58.608Z,49.36
2018-10-01T09:28:27.388Z,48.94
2018-10-01T09:30:56.137Z,47.99
2018-10-01T09:33:24.755Z,49.26
2018-10-01T09:35:53.534Z,49.78
2018-10-01T09:38:22.239Z,49.77
2018-10-01T09:40:50.909Z,49.05
2018-10-01T09:43:19.597Z,48.45
2018-10-01T09:45:48.287Z,48.06
2018-10-01T09:48:16.966Z,48.71
2018-10-01T09:50:45.663Z,48.76
2018-10-01T09:53:14.322Z,48.71
2018-10-01T09:55:42.998Z,47.80
2018-10-01T09:58:11.722Z,47.93
2018-10-01T10:00:43.853Z,47.31
2018-10-01T10:03:12.957Z,47.49
2018-10-01T10:05:41.716Z,47.07
2018-10-01T10:08:10.468Z,47.34
2018-10-01T10:10:39.152Z,47.26
2018-10-01T10:13:07.962Z,47.69
2018-10-01T10:15:36.829Z,48.06
2018-10-01T10:18:05.839Z,48.17
2018-10-01T10:20:34.658Z,48.59
2018-10-01T10:23:03.435Z,48.05
2018-10-01T10:25:32.314Z,48.28
2018-10-01T10:28:01.132Z,48.15
2018-10-01T10:30:30.103Z,47.87
2018-10-01T10:32:58.917Z,48.17
2018-10-01T10:35:27.805Z,48.37
2018-10-01T10:37:56.637Z,48.62
2018-10-01T10:40:25.357Z,48.49
2018-10-01T10:42:54.248Z,48.24
2018-10-01T10:45:22.973Z,48.53
2018-10-01T10:47:51.674Z,48.31
2018-10-01T10:50:20.457Z,47.81
2018-10-01T10:52:49.146Z,47.92
2018-10-01T10:55:17.864Z,48.16
2018-10-01T10:57:46.808Z,48.26
2018-10-01T11:00:15.524Z,48.03
2018-10-01T11:02:44.230Z,47.57
2018-10-01T11:05:12.963Z,48.20
2018-10-01T11:07:41.689Z,47.27
2018-10-01T11:10:10.478Z,47.47
2018-10-01T11:12:39.276Z,48.47
2018-10-01T11:15:08.840Z,48.63
2018-10-01T11:17:37.422Z,47.94
2018-10-01T11:20:06.433Z,47.13
2018-10-01T11:22:35.201Z,46.79
2018-10-01T11:25:03.979Z,46.98
2018-10-01T11:27:32.706Z,47.48
2018-10-01T11:30:01.407Z,47.27
2018-10-01T11:32:30.155Z,47.75
2018-10-01T11:34:59.111Z,47.93
2018-10-01T11:37:27.599Z,48.77
2018-10-01T11:39:56.399Z,47.83
2018-10-01T11:42:25.153Z,48.14
2018-10-01T11:44:54.384Z,47.80
2018-10-01T11:47:23.245Z,47.66
2018-10-01T11:49:52.009Z,47.11
2018-10-01T11:52:20.726Z,46.74
2018-10-01T11:54:49.460Z,46.67
2018-10-01T11:57:18.282Z,47.17
2018-10-01T11:59:47.024Z,47.56
2018-10-01T12:02:15.856Z,47.01
2018-10-01T12:04:44.636Z,46.07
2018-10-01T12:07:13.379Z,45.60
2018-10-01T12:09:42.278Z,45.79
2018-10-01T12:12:11.041Z,46.62
2018-10-01T12:14:39.802Z,46.65
2018-10-01T12:17:08.566Z,46.12
2018-10-01T12:19:37.336Z,45.61
2018-10-01T12:22:06.641Z,45.55
2018-10-01T12:24:35.326Z,46.23
2018-10-01T12:27:04.071Z,45.80
2018-10-01T12:29:32.753Z,46.21
2018-10-01T12:32:01.524Z,45.89
2018-10-01T12:34:30.342Z,45.95
2018-10-01T12:36:59.135Z,46.39
2018-10-01T12:39:27.989Z,45.25
2018-10-01T12:41:56.713Z,45.44
2018-10-01T12:44:25.461Z,45.01
2018-10-01T12:46:54.327Z,46.08
2018-10-01T12:49:23.167Z,45.00
2018-10-01T12:51:52.059Z,44.76
2018-10-01T12:54:20.810Z,45.45
2018-10-01T12:56:49.763Z,45.03
2018-10-01T12:59:18.577Z,45.01
2018-10-01T13:01:47.435Z,45.50
2018-10-01T13:04:17.203Z,46.52
2018-10-01T13:06:46.040Z,47.12
2018-10-01T13:09:14.752Z,47.67
2018-10-01T13:11:43.515Z,47.87
2018-10-01T13:14:12.332Z,47.30
2018-10-01T13:16:41.047Z,46.70
2018-10-01T13:19:09.750Z,47.94
2018-10-01T13:21:38.564Z,49.11
2018-10-01T13:24:07.446Z,51.42
2018-10-01T13:26:36.135Z,52.90
2018-10-01T13:29:04.862Z,54.98
2018-10-01T13:31:33.598Z,55.16
2018-10-01T13:34:02.325Z,55.48
2018-10-01T13:36:31.136Z,55.43
2018-10-01T13:39:04.961Z,56.29
2018-10-01T13:41:33.730Z,57.01
2018-10-01T13:44:02.474Z,59.09
2018-10-01T13:46:31.496Z,59.74
2018-10-01T13:49:00.274Z,59.98
2018-10-01T13:51:29.043Z,61.50
2018-10-01T13:53:57.777Z,61.78
2018-10-01T13:56:26.557Z,62.19
2018-10-01T13:58:55.402Z,63.71
2018-10-01T14:01:24.282Z,64.32
2018-10-01T14:03:53.043Z,64.71
2018-10-01T14:06:21.840Z,65.08
2018-10-01T14:08:50.597Z,65.74
2018-10-01T14:11:19.379Z,66.12
2018-10-01T14:13:48.414Z,66.78
2018-10-01T14:16:17.062Z,66.71
2018-10-01T14:18:45.949Z,67.38
2018-10-01T14:21:14.887Z,68.12
2018-10-01T14:23:43.745Z,68.19
2018-10-01T14:26:12.587Z,68.74
2018-10-01T14:28:41.300Z,69.53
2018-10-01T14:31:10.203Z,70.53
2018-10-01T14:33:38.887Z,70.56
2018-10-01T14:36:07.747Z,71.86
2018-10-01T14:38:36.480Z,71.05
2018-10-01T14:41:05.218Z,71.73
2018-10-01T14:43:33.946Z,72.47
2018-10-01T14:46:02.666Z,72.72
2018-10-01T14:48:31.456Z,73.11
2018-10-01T14:51:00.216Z,74.25
2018-10-01T14:53:28.935Z,74.18
2018-10-01T14:55:57.671Z,74.54
2018-10-01T14:58:26.370Z,75.61
2018-10-01T15:00:55.190Z,76.15
2018-10-01T15:03:23.960Z,75.84
2018-10-01T15:05:52.783Z,76.79
2018-10-01T15:08:21.590Z,75.96
2018-10-01T15:10:50.460Z,76.80
2018-10-01T15:13:19.235Z,77.17
2018-10-01T15:15:48.064Z,77.13
2018-10-01T15:18:17.217Z,76.94
2018-10-01T15:20:45.982Z,77.40
2018-10-01T15:23:14.804Z,77.71
2018-10-01T15:25:43.595Z,77.37
2018-10-01T15:28:12.445Z,77.41
2018-10-01T15:30:41.326Z,77.81
2018-10-01T15:33:09.971Z,77.01
2018-10-01T15:35:38.812Z,76.87
2018-10-01T15:38:08.740Z,76.90
2018-10-01T15:40:37.622Z,77.63
2018-10-01T15:43:07.408Z,78.02
2018-10-01T15:45:36.238Z,78.12
2018-10-01T15:48:04.995Z,78.85
2018-10-01T15:50:33.826Z,78.11
2018-10-01T15:53:02.594Z,78.51
2018-10-01T15:55:31.402Z,79.14
2018-10-01T15:58:00.206Z,78.67
2018-10-01T16:00:28.983Z,78.20
2018-10-01T16:02:57.945Z,77.90
2018-10-01T16:05:26.700Z,78.15
2018-10-01T16:07:55.462Z,78.46
2018-10-01T16:10:24.347Z,78.96
2018-10-01T16:12:53.115Z,78.77
2018-10-01T16:15:22.039Z,78.72
2018-10-01T16:17:50.822Z,78.83
2018-10-01T16:20:19.512Z,78.03
2018-10-01T16:22:48.357Z,77.81
2018-10-01T16:25:17.185Z,77.84
2018-10-01T16:27:45.929Z,78.38
2018-10-01T16:30:14.674Z,78.20
2018-10-01T16:32:43.474Z,78.46
2018-10-01T16:35:12.350Z,78.48
2018-10-01T16:37:41.616Z,78.15
2018-10-01T16:40:10.410Z,79.00
2018-10-01T16:42:39.190Z,78.81
2018-10-01T16:45:08.178Z,78.77
2018-10-01T16:47:37.039Z,78.57
2018-10-01T16:50:05.990Z,79.64
2018-10-01T16:52:34.863Z,79.75
2018-10-01T16:55:03.752Z,79.72
2018-10-01T16:57:33.843Z,79.83
2018-10-01T17:00:02.901Z,79.62
2018-10-01T17:02:31.790Z,79.09
2018-10-01T17:05:00.625Z,78.65
2018-10-01T17:07:30.124Z,78.13
2018-10-01T17:10:00.898Z,79.49
2018-10-01T17:12:30.189Z,79.16
2018-10-01T17:14:59.453Z,78.41
2018-10-01T17:17:28.468Z,78.71
2018-10-01T17:19:57.579Z,78.52
2018-10-01T17:22:26.362Z,78.74
2018-10-01T17:24:55.144Z,79.20
2018-10-01T17:27:23.847Z,79.38
2018-10-01T17:29:52.647Z,79.01
2018-10-01T17:32:21.459Z,79.21
2018-10-01T17:34:50.216Z,79.68
2018-10-01T17:37:18.988Z,80.13
2018-10-01T17:39:47.731Z,80.19
2018-10-01T17:42:16.543Z,80.51
2018-10-01T17:44:45.360Z,80.52
2018-10-01T17:47:14.100Z,80.72
2018-10-01T17:49:42.949Z,80.74
2018-10-01T17:52:11.818Z,80.88
2018-10-01T17:54:47.222Z,80.51
2018-10-01T17:57:16.855Z,81.12
2018-10-01T17:59:45.927Z,81.06
2018-10-01T18:02:14.660Z,80.86
2018-10-01T18:04:43.459Z,81.40
2018-10-01T18:07:12.246Z,80.64
2018-10-01T18:09:41.176Z,81.03
2018-10-01T18:12:10.118Z,81.15
2018-10-01T18:14:38.894Z,81.45
2018-10-01T18:17:07.650Z,80.92
2018-10-01T18:19:36.494Z,81.19
2018-10-01T18:22:05.313Z,80.80
2018-10-01T18:24:34.126Z,81.20
2018-10-01T18:27:02.847Z,81.29
2018-10-01T18:29:31.608Z,81.18
2018-10-01T18:32:00.516Z,81.13
2018-10-01T18:34:29.327Z,81.08
2018-10-01T18:36:58.016Z,80.99
2018-10-01T18:39:29.365Z,80.30
2018-10-01T18:41:58.572Z,80.34
2018-10-01T18:44:27.300Z,80.18
2018-10-01T18:46:56.112Z,79.33
2018-10-01T18:49:24.947Z,78.95
2018-10-01T18:51:53.757Z,79.48
2018-10-01T18:54:22.524Z,77.96
2018-10-01T18:56:51.414Z,77.80
2018-10-01T18:59:20.198Z,77.14
2018-10-01T19:01:48.979Z,77.49
2018-10-01T19:04:17.856Z,77.32
2018-10-01T19:06:46.662Z,77.51
2018-10-01T19:09:15.564Z,77.26
2018-10-01T19:11:44.398Z,76.61
2018-10-01T19:14:13.379Z,76.61
2018-10-01T19:16:42.240Z,76.41
2018-10-01T19:19:11.056Z,76.07
2018-10-01T19:21:40.036Z,75.78
2018-10-01T19:24:08.832Z,76.13
2018-10-01T19:26:37.613Z,75.53
2018-10-01T19:29:06.503Z,74.89
2018-10-01T19:31:35.380Z,74.17
2018-10-01T19:34:04.302Z,74.10
2018-10-01T19:36:33.264Z,74.34
2018-10-01T19:39:02.099Z,73.97
2018-10-01T19:41:31.165Z,73.95
2018-10-01T19:44:00.064Z,73.93
2018-10-01T19:46:28.859Z,73.58
2018-10-01T19:48:57.781Z,73.40
2018-10-01T19:51:26.603Z,72.75
2018-10-01T19:53:55.571Z,73.00
2018-10-01T19:56:24.470Z,73.64
2018-10-01T19:58:53.326Z,73.37
2018-10-01T20:01:22.239Z,73.36
2018-10-01T20:03:51.090Z,73.46
2018-10-01T20:06:19.985Z,72.67
2018-10-01T20:08:48.834Z,71.83
2018-10-01T20:11:17.816Z,72.09
2018-10-01T20:13:46.622Z,71.30
2018-10-01T20:16:15.530Z,71.19
2018-10-01T20:18:44.399Z,70.70
2018-10-01T20:21:13.356Z,70.44
2018-10-01T20:23:42.245Z,70.44
2018-10-01T20:26:11.023Z,70.43
2018-10-01T20:28:39.998Z,70.78
2018-10-01T20:31:08.679Z,71.16
2018-10-01T20:33:37.444Z,71.28
2018-10-01T20:36:06.422Z,71.69
2018-10-01T20:38:35.134Z,72.12
2018-10-01T20:41:04.164Z,73.05
2018-10-01T20:43:32.896Z,73.63
2018-10-01T20:46:01.683Z,75.07
2018-10-01T20:48:30.408Z,76.11
2018-10-01T20:50:59.150Z,76.47
2018-10-01T20:53:28.034Z,76.21
2018-10-01T20:55:56.795Z,76.68
2018-10-01T20:58:25.570Z,76.76
2018-10-01T21:00:54.295Z,76.78
2018-10-01T21:03:23.310Z,77.14
2018-10-01T21:05:52.033Z,77.53
2018-10-01T21:08:20.889Z,76.76
2018-10-01T21:10:49.688Z,77.35
2018-10-01T21:13:18.543Z,77.13
2018-10-01T21:15:47.266Z,77.43
2018-10-01T21:18:15.993Z,78.45
2018-10-01T21:20:44.817Z,78.42
2018-10-01T21:23:13.525Z,79.32
2018-10-01T21:25:42.285Z,78.86
2018-10-01T21:28:12.491Z,78.70
2018-10-01T21:30:41.186Z,78.72
2018-10-01T21:33:09.990Z,78.22
2018-10-01T21:35:38.724Z,77.75
2018-10-01T21:38:07.475Z,78.01
2018-10-01T21:40:36.202Z,78.55
2018-10-01T21:43:04.957Z,78.43
2018-10-01T21:45:33.754Z,78.50
2018-10-01T21:48:02.465Z,78.88
2018-10-01T21:50:31.154Z,79.03
2018-10-01T21:52:59.965Z,78.75
2018-10-01T21:55:28.697Z,78.94
2018-10-01T21:57:57.447Z,78.71
2018-10-01T22:00:26.282Z,78.64
2018-10-01T22:02:55.026Z,78.94
2018-10-01T22:05:23.774Z,78.03
2018-10-01T22:07:52.559Z,78.62
2018-10-01T22:10:21.292Z,78.34
2018-10-01T22:12:50.054Z,77.73
2018-10-01T22:15:18.782Z,77.79
2018-10-01T22:17:47.479Z,77.65
2018-10-01T22:20:16.186Z,77.95
2018-10-01T22:22:44.836Z,78.25
2018-10-01T22:25:13.491Z,78.19
2018-10-01T22:27:42.194Z,77.71
2018-10-01T22:30:10.872Z,78.27
2018-10-01T22:32:39.515Z,78.88
2018-10-01T22:35:08.214Z,78.55
2018-10-01T22:37:36.886Z,78.80
2018-10-01T22:40:05.708Z,79.07
2018-10-01T22:42:34.451Z,78.97
2018-10-01T22:45:03.146Z,79.04
2018-10-01T22:47:31.873Z,78.57
2018-10-01T22:50:06.008Z,78.50
2018-10-01T22:52:34.687Z,78.00
2018-10-01T22:55:03.360Z,77.69
2018-10-01T22:57:32.094Z,77.63
2018-10-01T23:00:00.762Z,77.50
2018-10-01T23:02:29.466Z,76.96
2018-10-01T23:04:58.155Z,77.55
2018-10-01T23:07:26.837Z,77.66
2018-10-01T23:09:55.477Z,78.02
2018-10-01T23:12:24.134Z,77.87
2018-10-01T23:14:52.785Z,78.85
2018-10-01T23:17:21.458Z,77.88
2018-10-01T23:19:50.113Z,78.29
2018-10-01T23:22:18.809Z,78.18
2018-10-01T23:24:47.525Z,78.04
2018-10-01T23:27:16.165Z,77.71
2018-10-01T23:29:44.840Z,77.68
2018-10-01T23:32:13.604Z,76.40
2018-10-01T23:34:42.205Z,76.56
2018-10-01T23:37:10.852Z,76.09
2018-10-01T23:39:39.538Z,76.09
2018-10-01T23:42:08.242Z,76.60
2018-10-01T23:44:36.853Z,76.06
2018-10-01T23:47:05.598Z,76.61
2018-10-01T23:49:34.327Z,76.09
2018-10-01T23:52:02.979Z,75.89
2018-10-01T23:54:31.683Z,76.08
2018-10-01T23:57:00.353Z,76.04
2018-10-01T23:59:29.042Z,76.28
